Time;durP1;ratioP1;P1;durP2;ratioP2;P2;SDS_P1;SDS_P2;PMS_P1;PMS_P2;Temp;Humidity;BMP_temperature;BMP_pressure;BME280_temperature;BME280_humidity;BME280_pressure;Samples;Min_cycle;Max_cycle;Signal;HPM_P1;HPM_P2
2024/04/05 00:01:29;;;;;;;241.60;74.40;;;;;;;;;;5014510;28;20561;-44
2024/04/05 00:03:57;;;;;;;243.17;76.83;;;;;;;;;;5011496;28;20188;-44
2024/04/05 00:06:23;;;;;;;246.13;83.22;;;;;;;;;;5014932;28;20930;-44
2024/04/05 00:08:49;;;;;;;240.57;72.47;;;;;;;;;;5015995;28;20183;-44
2024/04/05 00:11:15;;;;;;;242.87;77.13;;;;;;;;;;5007206;28;20495;-44
2024/04/05 00:13:41;;;;;;;246.27;83.70;;;;;;;;;;5015657;28;20430;-43
2024/04/05 00:16:08;;;;;;;242.52;78.13;;;;;;;;;;5015035;28;20460;-44
2024/04/05 00:18:34;;;;;;;247.07;84.32;;;;;;;;;;5015021;28;20176;-43
2024/04/05 00:21:04;;;;;;;246.55;83.63;;;;;;;;;;5015168;28;20692;-44
2024/04/05 00:23:35;;;;;;;241.98;74.60;;;;;;;;;;5015148;28;20686;-44
2024/04/05 00:26:02;;;;;;;247.10;85.00;;;;;;;;;;5015301;28;20178;-45
2024/04/05 00:28:28;;;;;;;245.20;79.32;;;;;;;;;;5015030;28;20197;-43
2024/04/05 00:30:54;;;;;;;242.33;77.47;;;;;;;;;;5015756;28;20204;-44
2024/04/05 00:33:20;;;;;;;240.18;72.35;;;;;;;;;;5014645;28;20437;-44
2024/04/05 00:35:51;;;;;;;244.68;80.68;;;;;;;;;;5014530;28;20181;-43
2024/04/05 00:38:17;;;;;;;242.63;77.03;;;;;;;;;;5014751;28;20190;-44
2024/04/05 00:40:43;;;;;;;245.40;79.28;;;;;;;;;;5015058;28;20249;-44
2024/04/05 00:43:09;;;;;;;243.83;76.40;;;;;;;;;;5014709;28;20171;-45
2024/04/05 00:45:35;;;;;;;241.77;76.67;;;;;;;;;;5014454;28;20405;-44
2024/04/05 00:48:01;;;;;;;241.68;76.53;;;;;;;;;;5014858;28;20796;-44
2024/04/05 00:50:30;;;;;;;243.20;77.68;;;;;;;;;;5014697;28;20453;-45
2024/04/05 00:52:56;;;;;;;244.38;79.20;;;;;;;;;;5015216;28;20200;-44
2024/04/05 00:55:23;;;;;;;243.77;77.90;;;;;;;;;;5014376;28;20560;-43
2024/04/05 00:57:49;;;;;;;243.68;75.43;;;;;;;;;;5014835;28;20186;-43
2024/04/05 01:00:16;;;;;;;247.75;82.25;;;;;;;;;;5014208;28;20644;-44
2024/04/05 01:02:42;;;;;;;250.45;81.90;;;;;;;;;;5014019;28;20179;-44
2024/04/05 01:05:08;;;;;;;251.67;84.73;;;;;;;;;;5013760;28;20218;-43
2024/04/05 01:07:34;;;;;;;243.23;78.15;;;;;;;;;;5012198;28;20517;-45
2024/04/05 01:10:00;;;;;;;240.17;73.97;;;;;;;;;;5014462;28;20282;-43
2024/04/05 01:12:26;;;;;;;239.57;70.83;;;;;;;;;;5014248;28;20419;-44
2024/04/05 01:14:52;;;;;;;244.03;80.17;;;;;;;;;;5014666;28;20893;-43
2024/04/05 01:17:18;;;;;;;242.77;76.40;;;;;;;;;;5013855;28;20429;-43
2024/04/05 01:19:44;;;;;;;243.63;78.10;;;;;;;;;;5014513;28;20473;-43
2024/04/05 01:22:11;;;;;;;244.07;76.55;;;;;;;;;;5013899;28;20410;-44
2024/04/05 01:24:37;;;;;;;243.55;77.35;;;;;;;;;;5014115;28;20553;-44
2024/04/05 01:27:05;;;;;;;242.32;74.65;;;;;;;;;;5013741;28;20202;-44
2024/04/05 01:29:31;;;;;;;244.23;78.50;;;;;;;;;;5013757;28;20266;-44
2024/04/05 01:31:57;;;;;;;243.53;75.37;;;;;;;;;;5014265;28;20276;-43
2024/04/05 01:34:23;;;;;;;241.73;75.23;;;;;;;;;;5013914;28;20430;-43
2024/04/05 01:36:50;;;;;;;241.33;73.07;;;;;;;;;;5013956;28;20498;-43
2024/04/05 01:39:16;;;;;;;241.82;75.70;;;;;;;;;;5013847;28;20446;-43
2024/04/05 01:41:42;;;;;;;242.53;77.63;;;;;;;;;;5014195;28;20294;-44
2024/04/05 01:44:08;;;;;;;245.37;79.30;;;;;;;;;;5014004;28;20409;-44
2024/04/05 01:46:34;;;;;;;245.03;76.63;;;;;;;;;;5013419;28;20511;-44
2024/04/05 01:49:00;;;;;;;237.73;70.70;;;;;;;;;;5013123;28;20407;-43
2024/04/05 01:51:26;;;;;;;238.97;69.73;;;;;;;;;;5013294;28;20437;-45
2024/04/05 01:53:52;;;;;;;242.33;76.40;;;;;;;;;;5013936;28;20419;-43
2024/04/05 01:56:18;;;;;;;241.17;72.20;;;;;;;;;;5013080;28;20405;-43
2024/04/05 01:58:44;;;;;;;239.10;71.07;;;;;;;;;;5013633;28;20765;-43
2024/04/05 02:01:09;;;;;;;237.07;68.57;;;;;;;;;;5013248;28;20876;-44
2024/04/05 02:03:36;;;;;;;240.17;70.70;;;;;;;;;;5013768;28;20417;-44
2024/04/05 02:06:11;;;;;;;240.20;72.47;;;;;;;;;;5011786;28;20411;-43
2024/04/05 02:08:37;;;;;;;242.75;74.70;;;;;;;;;;5012392;28;20746;-43
2024/04/05 02:11:03;;;;;;;241.13;69.50;;;;;;;;;;5011610;28;20199;-43
2024/04/05 02:13:29;;;;;;;235.83;66.37;;;;;;;;;;5011791;28;20416;-44
2024/04/05 02:15:54;;;;;;;241.03;71.07;;;;;;;;;;5011752;28;20415;-43
2024/04/05 02:18:20;;;;;;;240.70;73.13;;;;;;;;;;5011843;28;20932;-43
2024/04/05 02:21:05;;;;;;;236.33;67.37;;;;;;;;;;5011975;28;21027;-43
2024/04/05 02:23:31;;;;;;;242.43;76.72;;;;;;;;;;5012136;28;20401;-43
2024/04/05 02:25:57;;;;;;;242.15;73.53;;;;;;;;;;5011468;28;20188;-44
2024/04/05 02:28:23;;;;;;;245.10;78.73;;;;;;;;;;5011645;28;20176;-44
2024/04/05 02:30:49;;;;;;;235.87;65.20;;;;;;;;;;5011825;28;20524;-44
2024/04/05 02:33:15;;;;;;;235.20;66.20;;;;;;;;;;5011544;28;20946;-43
2024/04/05 02:35:42;;;;;;;239.07;68.68;;;;;;;;;;5011537;28;20442;-43
2024/04/05 02:38:08;;;;;;;240.97;73.13;;;;;;;;;;5011673;28;20267;-43
2024/04/05 02:40:34;;;;;;;247.17;81.00;;;;;;;;;;5011263;28;20473;-44
2024/04/05 02:43:00;;;;;;;241.87;73.97;;;;;;;;;;5011513;28;20416;-43
2024/04/05 02:45:26;;;;;;;243.33;76.33;;;;;;;;;;5011597;28;20414;-44
2024/04/05 02:47:52;;;;;;;238.25;69.60;;;;;;;;;;5011341;28;20407;-44
2024/04/05 02:50:18;;;;;;;237.97;69.43;;;;;;;;;;5011834;28;20704;-44
2024/04/05 02:52:44;;;;;;;239.07;70.70;;;;;;;;;;5011343;28;20474;-44
2024/04/05 02:55:10;;;;;;;244.30;76.00;;;;;;;;;;5011177;28;20420;-44
2024/04/05 02:57:36;;;;;;;240.40;69.87;;;;;;;;;;5011262;28;20411;-44
2024/04/05 03:00:03;;;;;;;242.18;75.20;;;;;;;;;;4991985;28;20466;-43
2024/04/05 03:02:29;;;;;;;241.88;72.63;;;;;;;;;;4991581;28;20170;-43
2024/04/05 03:04:54;;;;;;;243.43;74.87;;;;;;;;;;4991725;28;20220;-44
2024/04/05 03:07:20;;;;;;;239.13;71.80;;;;;;;;;;4991615;28;20443;-43
2024/04/05 03:09:46;;;;;;;241.90;72.37;;;;;;;;;;4991517;28;20433;-43
2024/04/05 03:12:12;;;;;;;243.00;74.70;;;;;;;;;;4991704;28;20422;-43
2024/04/05 03:14:38;;;;;;;243.07;74.27;;;;;;;;;;4991546;28;20502;-44
2024/04/05 03:17:04;;;;;;;245.13;76.77;;;;;;;;;;4991081;28;20414;-44
2024/04/05 03:19:30;;;;;;;245.55;78.20;;;;;;;;;;4991341;28;20461;-44
2024/04/05 03:21:56;;;;;;;239.27;67.70;;;;;;;;;;4991427;28;20197;-44
2024/04/05 03:24:22;;;;;;;242.50;75.33;;;;;;;;;;4991839;28;20417;-45
2024/04/05 03:26:49;;;;;;;246.17;80.00;;;;;;;;;;4991112;28;20411;-45
2024/04/05 03:29:15;;;;;;;246.15;76.90;;;;;;;;;;4991689;28;20758;-44
2024/04/05 03:31:41;;;;;;;243.90;74.55;;;;;;;;;;4991536;28;20235;-44
2024/04/05 03:34:07;;;;;;;240.97;71.57;;;;;;;;;;4991390;28;20212;-45
2024/04/05 03:36:33;;;;;;;241.67;73.83;;;;;;;;;;4991006;28;20418;-45
2024/04/05 03:39:01;;;;;;;242.52;72.05;;;;;;;;;;4991099;28;20419;-44
2024/04/05 03:41:30;;;;;;;246.73;79.25;;;;;;;;;;4990998;28;20204;-43
2024/04/05 03:43:56;;;;;;;244.05;74.32;;;;;;;;;;4991233;28;20239;-44
2024/04/05 03:46:22;;;;;;;243.10;74.27;;;;;;;;;;4991038;28;20582;-44
2024/04/05 03:48:48;;;;;;;243.27;72.35;;;;;;;;;;4991184;28;20409;-44
2024/04/05 03:51:14;;;;;;;245.95;76.60;;;;;;;;;;4991332;28;20200;-43
2024/04/05 03:53:40;;;;;;;242.23;71.73;;;;;;;;;;4991238;28;20276;-43
2024/04/05 03:56:06;;;;;;;239.05;67.80;;;;;;;;;;4990955;28;20425;-43
2024/04/05 03:58:32;;;;;;;244.13;73.80;;;;;;;;;;5000117;28;20182;-44
2024/04/05 04:00:58;;;;;;;245.40;77.20;;;;;;;;;;5010653;28;20695;-44
2024/04/05 04:03:24;;;;;;;241.03;71.03;;;;;;;;;;5010678;28;20434;-45
2024/04/05 04:05:50;;;;;;;246.80;76.35;;;;;;;;;;5010338;28;20406;-44
2024/04/05 04:08:16;;;;;;;239.60;67.87;;;;;;;;;;5010664;28;20538;-44
2024/04/05 04:10:42;;;;;;;242.80;74.07;;;;;;;;;;5010552;28;20823;-43
2024/04/05 04:13:08;;;;;;;244.40;74.68;;;;;;;;;;5014274;28;20421;-43
2024/04/05 04:15:34;;;;;;;247.75;81.45;;;;;;;;;;5014268;28;20202;-43
2024/04/05 04:18:01;;;;;;;244.37;72.53;;;;;;;;;;5014108;28;20180;-44
2024/04/05 04:20:27;;;;;;;244.18;74.65;;;;;;;;;;5013915;28;20465;-43
2024/04/05 04:22:53;;;;;;;241.07;71.50;;;;;;;;;;5014202;28;20297;-43
2024/04/05 04:25:21;;;;;;;247.47;80.03;;;;;;;;;;5013764;28;20424;-43
2024/04/05 04:27:48;;;;;;;244.52;77.13;;;;;;;;;;5013806;28;20799;-43
2024/04/05 04:30:14;;;;;;;246.13;77.75;;;;;;;;;;5014011;28;20193;-43
2024/04/05 04:32:40;;;;;;;244.77;76.00;;;;;;;;;;5013973;28;20238;-45
2024/04/05 04:35:06;;;;;;;242.30;69.37;;;;;;;;;;5013787;28;20418;-43
2024/04/05 04:37:32;;;;;;;239.43;69.07;;;;;;;;;;5014134;28;20484;-43
2024/04/05 04:39:58;;;;;;;241.30;71.72;;;;;;;;;;5013632;28;20233;-44
2024/04/05 04:42:24;;;;;;;240.90;71.33;;;;;;;;;;5013879;28;20640;-44
2024/04/05 04:44:54;;;;;;;243.27;73.20;;;;;;;;;;5013513;28;20419;-43
2024/04/05 04:47:20;;;;;;;240.48;70.57;;;;;;;;;;5013448;28;20513;-43
2024/04/05 04:49:46;;;;;;;239.68;71.90;;;;;;;;;;5013243;28;20274;-44
2024/04/05 04:52:11;;;;;;;239.87;68.47;;;;;;;;;;5013592;28;20218;-43
2024/04/05 04:54:38;;;;;;;243.23;77.23;;;;;;;;;;5013679;28;20535;-45
2024/04/05 04:57:05;;;;;;;237.80;68.43;;;;;;;;;;5013224;28;20426;-45
2024/04/05 04:59:31;;;;;;;238.60;66.63;;;;;;;;;;4998458;28;20249;-44
2024/04/05 05:01:57;;;;;;;240.67;69.77;;;;;;;;;;5000903;28;20716;-44
2024/04/05 05:04:23;;;;;;;239.03;67.70;;;;;;;;;;5014280;28;20970;-44
2024/04/05 05:06:50;;;;;;;240.75;68.90;;;;;;;;;;5013043;28;20906;-45
2024/04/05 05:09:16;;;;;;;244.95;76.07;;;;;;;;;;5008260;28;20190;-44
2024/04/05 05:11:42;;;;;;;240.90;69.78;;;;;;;;;;5014016;28;20199;-44
2024/04/05 05:14:09;;;;;;;237.52;67.30;;;;;;;;;;5014234;28;20310;-44
2024/04/05 05:16:37;;;;;;;241.35;71.55;;;;;;;;;;5013968;28;20673;-45
2024/04/05 05:19:03;;;;;;;238.95;68.15;;;;;;;;;;5013608;28;20165;-43
2024/04/05 05:21:31;;;;;;;241.88;72.22;;;;;;;;;;5014190;28;20215;-44
2024/04/05 05:23:58;;;;;;;242.35;72.30;;;;;;;;;;5014524;28;20235;-44
2024/04/05 05:26:24;;;;;;;241.75;72.22;;;;;;;;;;5013802;28;20609;-44
2024/04/05 05:28:50;;;;;;;241.43;70.10;;;;;;;;;;5014376;28;20255;-44
2024/04/05 05:31:16;;;;;;;237.80;64.37;;;;;;;;;;5013464;28;21015;-45
2024/04/05 05:33:42;;;;;;;240.88;70.60;;;;;;;;;;5013845;28;20440;-47
2024/04/05 05:36:08;;;;;;;241.63;71.40;;;;;;;;;;5013489;28;20662;-44
2024/04/05 05:38:33;;;;;;;242.47;72.63;;;;;;;;;;5013326;28;20943;-44
2024/04/05 05:40:59;;;;;;;238.57;64.83;;;;;;;;;;5014574;28;20464;-47
2024/04/05 05:43:25;;;;;;;242.60;71.73;;;;;;;;;;5013409;28;20412;-46
2024/04/05 05:45:51;;;;;;;238.27;65.25;;;;;;;;;;5013926;28;20416;-45
2024/04/05 05:48:17;;;;;;;237.03;66.17;;;;;;;;;;5013624;28;20238;-45
2024/04/05 05:50:43;;;;;;;235.97;65.27;;;;;;;;;;5014048;28;20540;-45
2024/04/05 05:53:10;;;;;;;240.33;70.77;;;;;;;;;;5009040;28;20417;-45
2024/04/05 05:55:36;;;;;;;240.57;72.40;;;;;;;;;;5009739;28;20971;-46
2024/04/05 05:58:02;;;;;;;240.43;71.53;;;;;;;;;;5013530;28;20270;-46
2024/04/05 06:00:28;;;;;;;242.20;72.20;;;;;;;;;;5012907;28;20473;-45
2024/04/05 06:02:54;;;;;;;241.88;71.90;;;;;;;;;;5013566;28;20218;-45
2024/04/05 06:05:23;;;;;;;239.87;69.03;;;;;;;;;;5012960;28;20206;-45
2024/04/05 06:07:49;;;;;;;240.98;69.80;;;;;;;;;;5013805;28;20698;-45
2024/04/05 06:10:15;;;;;;;239.80;68.83;;;;;;;;;;5013603;28;20211;-46
2024/04/05 06:12:41;;;;;;;239.47;69.87;;;;;;;;;;5013635;28;20425;-46
2024/04/05 06:15:07;;;;;;;242.77;71.22;;;;;;;;;;5007106;28;20425;-46
2024/04/05 06:17:35;;;;;;;241.10;73.47;;;;;;;;;;5013472;28;20183;-48
2024/04/05 06:20:05;;;;;;;240.18;72.88;;;;;;;;;;5013800;28;20197;-46
2024/04/05 06:22:31;;;;;;;241.40;72.40;;;;;;;;;;5007722;28;20182;-46
2024/04/05 06:24:57;;;;;;;235.38;65.35;;;;;;;;;;5012749;28;20179;-45
2024/04/05 06:27:23;;;;;;;240.77;72.93;;;;;;;;;;5013349;28;20184;-47
2024/04/05 06:29:50;;;;;;;240.07;70.45;;;;;;;;;;5013555;28;20536;-47
2024/04/05 06:32:16;;;;;;;241.52;72.85;;;;;;;;;;5013100;28;20243;-46
2024/04/05 06:34:42;;;;;;;239.82;68.97;;;;;;;;;;5013319;28;20187;-45
2024/04/05 06:37:08;;;;;;;237.68;68.55;;;;;;;;;;5012854;28;20551;-45
2024/04/05 06:39:35;;;;;;;242.40;72.93;;;;;;;;;;5013266;28;20471;-48
2024/04/05 06:42:01;;;;;;;241.30;71.40;;;;;;;;;;5011584;28;20864;-45
2024/04/05 06:44:31;;;;;;;245.55;76.63;;;;;;;;;;5011819;28;20182;-47
2024/04/05 06:46:57;;;;;;;242.23;71.10;;;;;;;;;;5011411;28;20178;-47
2024/04/05 06:49:23;;;;;;;243.67;72.00;;;;;;;;;;5011820;28;20633;-45
2024/04/05 06:51:49;;;;;;;246.20;77.37;;;;;;;;;;5011659;28;20494;-46
2024/04/05 06:54:16;;;;;;;240.83;71.90;;;;;;;;;;5011819;28;20872;-46
2024/04/05 06:56:42;;;;;;;244.07;74.47;;;;;;;;;;5010978;28;20418;-45
2024/04/05 06:59:08;;;;;;;247.53;79.10;;;;;;;;;;4999975;28;20400;-46
2024/04/05 07:01:35;;;;;;;244.13;75.03;;;;;;;;;;4991709;28;20821;-46
2024/04/05 07:04:01;;;;;;;248.13;78.78;;;;;;;;;;4994942;28;20433;-46
2024/04/05 07:06:27;;;;;;;250.07;81.70;;;;;;;;;;5007492;28;20697;-47
2024/04/05 07:08:53;;;;;;;249.67;77.87;;;;;;;;;;5010159;28;20780;-45
2024/04/05 07:11:19;;;;;;;242.40;72.80;;;;;;;;;;5011269;28;20436;-45
2024/04/05 07:13:45;;;;;;;249.23;80.57;;;;;;;;;;5011593;28;20419;-46
2024/04/05 07:16:11;;;;;;;252.83;87.30;;;;;;;;;;5009601;28;20498;-45
2024/04/05 07:18:38;;;;;;;255.47;88.93;;;;;;;;;;5011096;28;20940;-47
2024/04/05 07:21:04;;;;;;;250.83;81.27;;;;;;;;;;5011233;28;20550;-46
2024/04/05 07:23:30;;;;;;;251.83;82.07;;;;;;;;;;5011054;28;20895;-47
2024/04/05 07:25:56;;;;;;;260.33;89.67;;;;;;;;;;5009759;28;20424;-46
2024/04/05 07:28:22;;;;;;;253.47;88.53;;;;;;;;;;5010580;28;20805;-46
2024/04/05 07:30:48;;;;;;;254.37;88.67;;;;;;;;;;5010861;28;20787;-47
2024/04/05 07:33:14;;;;;;;248.50;80.27;;;;;;;;;;5011376;28;20430;-48
2024/04/05 07:35:40;;;;;;;254.00;89.00;;;;;;;;;;5010983;28;20418;-48
2024/04/05 07:38:06;;;;;;;251.57;85.33;;;;;;;;;;5011633;28;20420;-45
2024/04/05 07:40:36;;;;;;;258.53;92.73;;;;;;;;;;5010978;28;20785;-48
2024/04/05 07:43:02;;;;;;;253.50;84.40;;;;;;;;;;5011368;28;20448;-45
2024/04/05 07:45:28;;;;;;;252.80;83.80;;;;;;;;;;5010976;28;20469;-46
2024/04/05 07:47:54;;;;;;;254.47;87.93;;;;;;;;;;5014426;28;20417;-46
2024/04/05 07:50:21;;;;;;;251.60;85.65;;;;;;;;;;5014983;28;20466;-45
2024/04/05 07:52:50;;;;;;;253.20;89.27;;;;;;;;;;5014978;28;20197;-47
2024/04/05 07:55:16;;;;;;;258.43;92.47;;;;;;;;;;5014470;28;20418;-48
2024/04/05 07:57:44;;;;;;;251.90;86.17;;;;;;;;;;5014354;28;20411;-45
2024/04/05 08:00:14;;;;;;;254.90;86.83;;;;;;;;;;4995071;28;20470;-47
2024/04/05 08:02:49;;;;;;;248.27;83.50;;;;;;;;;;5006230;28;20490;-46
2024/04/05 08:05:16;;;;;;;260.00;93.60;;;;;;;;;;5013203;28;20526;-44
2024/04/05 08:07:42;;;;;;;253.38;87.22;;;;;;;;;;5013818;28;20411;-44
2024/04/05 08:10:09;;;;;;;248.55;83.68;;;;;;;;;;4994646;28;20200;-47
2024/04/05 08:12:35;;;;;;;252.38;91.15;;;;;;;;;;4994851;28;20178;-46
2024/04/05 08:15:01;;;;;;;250.87;87.93;;;;;;;;;;4994316;28;20208;-46
2024/04/05 08:17:27;;;;;;;254.93;91.30;;;;;;;;;;4993556;28;20420;-45
2024/04/05 08:19:53;;;;;;;251.43;87.37;;;;;;;;;;4996699;28;20467;-46
2024/04/05 08:22:19;;;;;;;252.03;86.30;;;;;;;;;;5014060;28;20423;-46
2024/04/05 08:24:45;;;;;;;252.13;85.17;;;;;;;;;;5014139;28;20418;-44
2024/04/05 08:27:11;;;;;;;252.53;86.57;;;;;;;;;;5013813;28;20412;-47
2024/04/05 08:29:37;;;;;;;254.33;90.03;;;;;;;;;;5013840;28;20416;-47
2024/04/05 08:32:03;;;;;;;252.43;90.57;;;;;;;;;;5013978;28;20414;-47
2024/04/05 08:34:29;;;;;;;254.43;89.47;;;;;;;;;;5013872;28;20543;-47
2024/04/05 08:36:57;;;;;;;254.57;91.43;;;;;;;;;;5013679;28;20501;-47
2024/04/05 08:39:23;;;;;;;254.53;91.33;;;;;;;;;;4999921;28;20414;-46
2024/04/05 08:41:50;;;;;;;254.90;93.10;;;;;;;;;;4993936;28;20467;-45
2024/04/05 08:44:16;;;;;;;252.33;88.20;;;;;;;;;;4994526;28;20195;-46
2024/04/05 08:46:43;;;;;;;256.43;95.77;;;;;;;;;;5010383;28;20435;-47
2024/04/05 08:49:10;;;;;;;258.63;93.82;;;;;;;;;;5012495;28;20438;-45
2024/04/05 08:51:39;;;;;;;254.07;91.87;;;;;;;;;;5013623;28;20197;-46
2024/04/05 08:54:05;;;;;;;248.90;82.67;;;;;;;;;;5013449;28;20411;-46
2024/04/05 08:56:31;;;;;;;247.60;79.13;;;;;;;;;;5013309;28;20416;-46
2024/04/05 08:59:01;;;;;;;255.00;93.33;;;;;;;;;;5007035;28;20495;-45
2024/04/05 09:01:27;;;;;;;249.57;83.43;;;;;;;;;;5013793;28;20467;-46
2024/04/05 09:03:54;;;;;;;254.83;90.03;;;;;;;;;;5013060;28;20419;-45
2024/04/05 09:06:21;;;;;;;253.37;89.33;;;;;;;;;;5013060;28;20789;-45
2024/04/05 09:08:48;;;;;;;254.27;91.30;;;;;;;;;;5013092;28;20416;-44
2024/04/05 09:11:25;;;;;;;254.93;89.63;;;;;;;;;;5013546;28;20487;-45
2024/04/05 09:13:54;;;;;;;251.47;85.43;;;;;;;;;;5013434;28;20412;-45
2024/04/05 09:16:23;;;;;;;249.73;85.15;;;;;;;;;;5012852;28;20596;-46
2024/04/05 09:18:50;;;;;;;251.97;85.07;;;;;;;;;;5012983;28;20186;-46
2024/04/05 09:21:17;;;;;;;256.47;91.73;;;;;;;;;;5012908;28;20548;-46
2024/04/05 09:23:44;;;;;;;249.88;84.10;;;;;;;;;;5012987;28;20977;-46
2024/04/05 09:26:10;;;;;;;252.20;86.37;;;;;;;;;;5012564;28;20183;-44
2024/04/05 09:28:36;;;;;;;249.63;83.10;;;;;;;;;;5012838;28;20995;-46
2024/04/05 09:31:03;;;;;;;251.37;83.97;;;;;;;;;;5012664;28;20864;-46
2024/04/05 09:33:29;;;;;;;255.57;92.27;;;;;;;;;;5012801;28;20795;-46
2024/04/05 09:35:56;;;;;;;252.07;86.90;;;;;;;;;;5012546;28;20505;-46
2024/04/05 09:38:24;;;;;;;251.93;88.23;;;;;;;;;;5012755;28;20421;-44
2024/04/05 09:40:52;;;;;;;252.47;88.57;;;;;;;;;;5012540;28;21016;-44
2024/04/05 09:43:20;;;;;;;251.67;85.47;;;;;;;;;;5012430;28;20409;-46
2024/04/05 09:45:49;;;;;;;253.47;88.50;;;;;;;;;;5012259;28;20794;-46
2024/04/05 09:48:17;;;;;;;248.63;81.07;;;;;;;;;;5012608;28;20409;-45
2024/04/05 09:50:44;;;;;;;252.17;87.57;;;;;;;;;;5012373;28;20475;-47
2024/04/05 09:53:10;;;;;;;254.70;90.73;;;;;;;;;;5012543;28;20422;-47
2024/04/05 09:55:38;;;;;;;254.50;90.27;;;;;;;;;;5012432;28;20407;-45
2024/04/05 09:58:07;;;;;;;254.67;87.27;;;;;;;;;;5006207;28;20510;-47
2024/04/05 10:00:34;;;;;;;250.87;87.83;;;;;;;;;;5012252;28;20465;-46
2024/04/05 10:03:00;;;;;;;253.10;89.00;;;;;;;;;;5018286;28;21023;-45
2024/04/05 10:05:28;;;;;;;252.70;87.67;;;;;;;;;;5011916;28;20413;-45
2024/04/05 10:07:54;;;;;;;249.00;82.67;;;;;;;;;;5012202;28;20922;-45
2024/04/05 10:10:32;;;;;;;251.13;84.30;;;;;;;;;;5011015;28;20966;-45
2024/04/05 10:12:58;;;;;;;254.80;89.80;;;;;;;;;;5010699;28;20437;-46
2024/04/05 10:15:25;;;;;;;256.77;91.63;;;;;;;;;;5010070;28;20954;-46
2024/04/05 10:17:56;;;;;;;258.93;93.53;;;;;;;;;;5010543;28;21002;-44
2024/04/05 10:20:22;;;;;;;253.40;85.80;;;;;;;;;;5010536;28;20578;-44
2024/04/05 10:22:58;;;;;;;255.03;88.07;;;;;;;;;;5010410;28;20484;-45
2024/04/05 10:25:24;;;;;;;250.40;83.90;;;;;;;;;;5011019;28;20410;-46
2024/04/05 10:27:53;;;;;;;250.83;85.13;;;;;;;;;;5011774;28;20178;-46
2024/04/05 10:30:21;;;;;;;251.40;84.97;;;;;;;;;;5011826;28;20864;-45
2024/04/05 10:32:54;;;;;;;250.53;84.90;;;;;;;;;;5012101;28;20412;-47
2024/04/05 10:35:20;;;;;;;252.23;84.90;;;;;;;;;;5011499;28;20464;-45
2024/04/05 10:37:55;;;;;;;251.47;87.97;;;;;;;;;;5011746;28;20955;-46
2024/04/05 10:40:22;;;;;;;249.17;84.20;;;;;;;;;;5011689;28;20481;-46
2024/04/05 10:42:48;;;;;;;256.60;91.67;;;;;;;;;;5011676;28;20812;-44
2024/04/05 10:45:20;;;;;;;255.43;88.93;;;;;;;;;;5011568;28;20472;-46
2024/04/05 10:47:55;;;;;;;249.77;84.28;;;;;;;;;;5011418;28;20426;-46
2024/04/05 10:50:22;;;;;;;249.97;83.90;;;;;;;;;;5011544;28;20195;-47
2024/04/05 10:52:48;;;;;;;252.63;87.13;;;;;;;;;;5011420;28;20418;-46
2024/04/05 10:55:14;;;;;;;250.90;84.47;;;;;;;;;;5011430;28;20858;-47
2024/04/05 10:57:40;;;;;;;250.87;85.47;;;;;;;;;;5011340;28;20503;-48
2024/04/05 11:00:11;;;;;;;248.13;81.30;;;;;;;;;;4991726;28;20548;-45
2024/04/05 11:02:38;;;;;;;248.53;83.10;;;;;;;;;;4991799;28;20410;-45
2024/04/05 11:05:06;;;;;;;264.80;100.43;;;;;;;;;;5000890;28;20405;-46
2024/04/05 11:07:33;;;;;;;249.73;84.87;;;;;;;;;;5011232;28;20453;-45
2024/04/05 11:09:59;;;;;;;249.90;85.13;;;;;;;;;;5011339;28;20666;-47
2024/04/05 11:12:25;;;;;;;250.93;88.70;;;;;;;;;;5011203;28;20418;-46
2024/04/05 11:14:51;;;;;;;248.73;80.57;;;;;;;;;;5011175;28;20450;-46
2024/04/05 11:17:17;;;;;;;247.27;78.70;;;;;;;;;;5011274;28;20503;-47
2024/04/05 11:19:43;;;;;;;248.43;83.90;;;;;;;;;;5010968;28;20576;-46
2024/04/05 11:22:09;;;;;;;250.20;83.60;;;;;;;;;;5011092;28;20499;-46
2024/04/05 11:24:35;;;;;;;251.73;89.20;;;;;;;;;;5011212;28;20420;-44
2024/04/05 11:27:01;;;;;;;253.57;89.37;;;;;;;;;;5010050;28;20764;-46
2024/04/05 11:29:26;;;;;;;248.87;82.90;;;;;;;;;;5010989;28;20759;-45
2024/04/05 11:31:52;;;;;;;250.83;85.13;;;;;;;;;;5010828;28;20434;-46
2024/04/05 11:34:18;;;;;;;251.67;89.23;;;;;;;;;;5011186;28;20510;-46
2024/04/05 11:36:45;;;;;;;252.90;89.73;;;;;;;;;;5010827;28;20414;-46
2024/04/05 11:39:14;;;;;;;253.27;87.50;;;;;;;;;;5011263;28;20943;-45
2024/04/05 11:41:40;;;;;;;254.70;87.67;;;;;;;;;;5011079;28;20477;-44
2024/04/05 11:44:06;;;;;;;264.30;100.30;;;;;;;;;;5009842;28;20413;-44
2024/04/05 11:46:33;;;;;;;254.93;91.40;;;;;;;;;;5010223;28;20451;-43
2024/04/05 11:48:59;;;;;;;252.87;89.97;;;;;;;;;;5005180;28;20499;-43
2024/04/05 11:51:25;;;;;;;255.67;93.03;;;;;;;;;;5010220;28;20445;-44
2024/04/05 11:53:52;;;;;;;255.53;92.90;;;;;;;;;;5001573;28;20475;-42
2024/04/05 11:56:18;;;;;;;252.90;89.57;;;;;;;;;;4994638;28;20428;-43
2024/04/05 11:58:44;;;;;;;254.07;91.47;;;;;;;;;;5010752;28;20422;-43
2024/04/05 12:01:12;;;;;;;251.00;85.60;;;;;;;;;;4999173;28;20541;-43
2024/04/05 12:03:38;;;;;;;256.87;91.90;;;;;;;;;;5009578;28;20409;-43
2024/04/05 12:06:05;;;;;;;255.10;91.03;;;;;;;;;;5008759;28;20412;-43
2024/04/05 12:08:31;;;;;;;251.20;85.80;;;;;;;;;;5010896;28;20418;-43
2024/04/05 12:10:57;;;;;;;251.23;87.83;;;;;;;;;;5001123;28;20943;-43
2024/04/05 12:13:23;;;;;;;256.33;94.60;;;;;;;;;;5007773;28;20427;-43
2024/04/05 12:15:49;;;;;;;256.20;97.17;;;;;;;;;;5004366;28;20475;-43
2024/04/05 12:18:15;;;;;;;255.27;95.87;;;;;;;;;;5009494;28;20414;-43
2024/04/05 12:20:46;;;;;;;249.70;86.83;;;;;;;;;;4997548;28;20562;-44
2024/04/05 12:23:12;;;;;;;254.50;94.53;;;;;;;;;;4999074;28;20417;-43
2024/04/05 12:25:39;;;;;;;254.33;95.43;;;;;;;;;;4998216;28;20406;-44
2024/04/05 12:28:05;;;;;;;260.00;100.33;;;;;;;;;;4988132;28;20763;-44
2024/04/05 12:30:31;;;;;;;256.77;95.97;;;;;;;;;;4994559;28;20493;-44
2024/04/05 12:32:57;;;;;;;253.17;92.70;;;;;;;;;;5010266;28;20491;-43
2024/04/05 12:35:23;;;;;;;257.73;97.67;;;;;;;;;;5013365;28;20943;-45
2024/04/05 12:37:54;;;;;;;254.00;90.57;;;;;;;;;;5010935;28;20424;-43
2024/04/05 12:40:27;;;;;;;253.73;94.33;;;;;;;;;;5007534;28;20476;-42
2024/04/05 12:42:53;;;;;;;254.87;94.60;;;;;;;;;;4994367;28;20417;-43
2024/04/05 12:45:20;;;;;;;254.03;92.10;;;;;;;;;;5007079;28;20415;-43
2024/04/05 12:47:46;;;;;;;254.13;90.47;;;;;;;;;;5005507;28;20530;-44
2024/04/05 12:50:12;;;;;;;258.37;98.17;;;;;;;;;;5019118;28;20994;-45
2024/04/05 12:52:38;;;;;;;253.57;93.07;;;;;;;;;;5012315;28;20510;-45
2024/04/05 12:55:04;;;;;;;252.23;88.30;;;;;;;;;;4994175;28;20619;-42
2024/04/05 12:57:30;;;;;;;255.00;91.73;;;;;;;;;;5008547;28;20415;-43
2024/04/05 12:59:56;;;;;;;252.73;89.03;;;;;;;;;;4997259;28;20523;-42
2024/04/05 13:02:22;;;;;;;252.27;84.33;;;;;;;;;;5016280;28;20497;-41
2024/04/05 13:04:51;;;;;;;253.88;87.05;;;;;;;;;;5016494;28;20415;-42
2024/04/05 13:07:17;;;;;;;249.80;80.97;;;;;;;;;;5011708;28;20184;-43
2024/04/05 13:09:43;;;;;;;254.17;88.83;;;;;;;;;;5012669;28;20427;-45
2024/04/05 13:12:09;;;;;;;255.97;90.93;;;;;;;;;;5007598;28;20516;-43
2024/04/05 13:14:36;;;;;;;247.27;78.07;;;;;;;;;;4990913;28;20404;-43
2024/04/05 13:17:02;;;;;;;244.30;74.80;;;;;;;;;;5003050;28;20549;-43
2024/04/05 13:19:28;;;;;;;248.60;78.43;;;;;;;;;;5012001;28;20183;-43
2024/04/05 13:21:54;;;;;;;244.83;76.07;;;;;;;;;;5012384;28;20568;-43
2024/04/05 13:24:20;;;;;;;253.57;88.83;;;;;;;;;;5006207;28;20491;-43
2024/04/05 13:26:46;;;;;;;246.60;74.77;;;;;;;;;;4991296;28;20958;-43
2024/04/05 13:29:12;;;;;;;250.50;83.63;;;;;;;;;;5005154;28;20410;-43
2024/04/05 13:31:38;;;;;;;251.60;86.13;;;;;;;;;;4996121;28;20478;-43
2024/04/05 13:34:09;;;;;;;252.17;87.30;;;;;;;;;;4993175;28;20189;-43
2024/04/05 13:36:35;;;;;;;248.85;81.60;;;;;;;;;;4993052;28;20861;-43
2024/04/05 13:39:01;;;;;;;256.73;93.13;;;;;;;;;;4993311;28;20598;-44
2024/04/05 13:41:27;;;;;;;251.63;83.57;;;;;;;;;;4993127;28;20971;-44
2024/04/05 13:43:53;;;;;;;250.43;84.57;;;;;;;;;;4992213;28;20455;-44
2024/04/05 13:46:21;;;;;;;259.27;98.47;;;;;;;;;;4992904;28;20850;-44
2024/04/05 13:48:48;;;;;;;257.33;97.10;;;;;;;;;;4992780;28;20773;-44
2024/04/05 13:51:14;;;;;;;257.17;99.20;;;;;;;;;;4992860;28;20862;-43
2024/04/05 13:53:40;;;;;;;252.40;90.03;;;;;;;;;;4993010;28;20529;-43
2024/04/05 13:56:09;;;;;;;248.13;82.83;;;;;;;;;;4992527;28;20316;-46
2024/04/05 13:58:35;;;;;;;248.70;82.33;;;;;;;;;;5002089;28;20911;-44
2024/04/05 14:01:03;;;;;;;249.83;86.13;;;;;;;;;;5012309;28;20488;-45